Res La Ceiba, Puerto Rico
Current Conditions -  °F | °C
As of 12:01 PM on Monday 22 Dec 2014 (Local Time) from TJNR Reporting Station
Broken Clouds Broken Clouds  
Wind Chill: 84°   Ceiling: 2300
Heat Index: 90°   Visibility: 10mi
Dew Point: 73°   Wind: 8mph
Humidity: 69%   Direction: 70°ENE
Pressure: 30.08"   Gusts: NA
Location:  18.2667°N, 65.6476°W
Report Text: TJNR 221601Z AUTO 07007KT 10SM BKN023 BKN032 29/23 A3008 RMK AO2 T02890228
Loading
Personal Weather Stations






























Interactive Weather Map New forecast layout! Learn more

10-Day Weather Forecast

Advertisements
Track Severe Weather on mobile